createdAt,value
2018-12-31T00:02:03.784Z,100349.02
2018-12-31T00:04:32.606Z,100348.66
2018-12-31T00:07:01.424Z,100349.97
2018-12-31T00:09:30.637Z,100350.70
2018-12-31T00:11:59.753Z,100349.76
2018-12-31T00:14:28.633Z,100349.58
2018-12-31T00:16:57.586Z,100350.17
2018-12-31T00:19:26.652Z,100350.38
2018-12-31T00:21:55.524Z,100361.83
2018-12-31T00:24:24.394Z,100354.44
2018-12-31T00:26:53.260Z,100353.70
2018-12-31T00:29:22.084Z,100353.55
2018-12-31T00:31:51.119Z,100355.69
2018-12-31T00:34:20.448Z,100357.61
2018-12-31T00:36:49.513Z,100361.52
2018-12-31T00:39:18.395Z,100361.05
2018-12-31T00:41:47.213Z,100355.13
2018-12-31T00:44:16.030Z,100353.76
2018-12-31T00:46:44.849Z,100358.77
2018-12-31T00:49:13.680Z,100353.08
2018-12-31T00:51:42.550Z,100355.70
2018-12-31T00:54:11.375Z,100354.63
2018-12-31T00:56:40.187Z,100349.42
2018-12-31T00:59:09.019Z,100351.71
2018-12-31T01:01:37.807Z,100355.64
2018-12-31T01:04:06.756Z,100355.08
2018-12-31T01:06:35.649Z,100360.05
2018-12-31T01:09:05.771Z,100367.02
2018-12-31T01:11:34.663Z,100370.43
2018-12-31T01:14:03.759Z,100366.91
2018-12-31T01:16:32.719Z,100376.89
2018-12-31T01:19:01.563Z,100371.29
2018-12-31T01:21:30.339Z,100358.44
2018-12-31T01:23:59.231Z,100363.65
2018-12-31T01:26:28.028Z,100360.34
2018-12-31T01:28:56.916Z,100362.23
2018-12-31T01:31:25.766Z,100363.53
2018-12-31T01:33:54.596Z,100361.23
2018-12-31T01:36:23.407Z,100356.52
2018-12-31T01:38:52.273Z,100359.86
2018-12-31T01:41:21.162Z,100356.95
2018-12-31T01:43:49.983Z,100360.16
2018-12-31T01:46:18.883Z,100358.77
2018-12-31T01:48:47.703Z,100357.25
2018-12-31T01:51:16.580Z,100356.42
2018-12-31T01:53:45.463Z,100350.44
2018-12-31T01:56:14.278Z,100350.85
2018-12-31T01:58:43.091Z,100344.89
2018-12-31T02:01:12.078Z,100348.54
2018-12-31T02:03:40.902Z,100349.75
2018-12-31T02:06:09.719Z,100349.69
2018-12-31T02:08:38.596Z,100350.97
2018-12-31T02:11:07.477Z,100348.63
2018-12-31T02:13:36.395Z,100353.52
2018-12-31T02:16:05.289Z,100347.68
2018-12-31T02:18:34.281Z,100353.52
2018-12-31T02:21:03.172Z,100352.95
2018-12-31T02:23:32.053Z,100352.16
2018-12-31T02:26:00.865Z,100354.64
2018-12-31T02:28:29.660Z,100350.34
2018-12-31T02:31:00.350Z,100349.19
2018-12-31T02:33:29.147Z,100353.78
2018-12-31T02:35:58.038Z,100344.20
2018-12-31T02:38:26.827Z,100341.72
2018-12-31T02:40:55.648Z,100338.55
2018-12-31T02:43:24.559Z,100340.66
2018-12-31T02:45:53.399Z,100348.18
2018-12-31T02:48:22.205Z,100350.80
2018-12-31T02:50:51.098Z,100351.50
2018-12-31T02:53:19.911Z,100340.56
2018-12-31T02:55:48.713Z,100343.64
2018-12-31T02:58:17.596Z,100333.45
2018-12-31T03:00:46.482Z,100333.95
2018-12-31T03:03:15.302Z,100329.54
2018-12-31T03:05:44.441Z,100330.81
2018-12-31T03:08:13.358Z,100335.67
2018-12-31T03:10:42.200Z,100334.81
2018-12-31T03:13:11.015Z,100328.71
2018-12-31T03:15:39.845Z,100328.65
2018-12-31T03:18:08.824Z,100333.03
2018-12-31T03:20:37.732Z,100332.53
2018-12-31T03:23:06.618Z,100323.97
2018-12-31T03:25:35.504Z,100323.31
2018-12-31T03:28:04.553Z,100320.88
2018-12-31T03:30:33.370Z,100318.68
2018-12-31T03:33:02.531Z,100318.80
2018-12-31T03:35:31.440Z,100323.25
2018-12-31T03:38:00.257Z,100319.75
2018-12-31T03:40:29.041Z,100319.28
2018-12-31T03:42:57.967Z,100317.05
2018-12-31T03:45:26.824Z,100318.21
2018-12-31T03:47:55.812Z,100316.01
2018-12-31T03:50:24.703Z,100318.73
2018-12-31T03:52:53.584Z,100314.83
2018-12-31T03:55:22.482Z,100318.49
2018-12-31T03:57:51.371Z,100310.67
2018-12-31T04:00:20.197Z,100316.78
2018-12-31T04:02:49.043Z,100311.25
2018-12-31T04:05:17.894Z,100311.73
2018-12-31T04:07:52.974Z,100317.19
2018-12-31T04:10:17.465Z,100300.86
2018-12-31T04:12:46.479Z,100309.36
2018-12-31T04:15:15.428Z,100307.80
2018-12-31T04:17:44.384Z,100312.83
2018-12-31T04:20:13.498Z,100310.73
2018-12-31T04:22:42.489Z,100311.65
2018-12-31T04:25:11.284Z,100306.22
2018-12-31T04:27:40.093Z,100307.45
2018-12-31T04:30:09.238Z,100303.98
2018-12-31T04:32:38.309Z,100305.29
2018-12-31T04:35:07.377Z,100303.12
2018-12-31T04:37:36.347Z,100305.92
2018-12-31T04:40:05.322Z,100300.22
2018-12-31T04:42:34.318Z,100293.19
2018-12-31T04:45:03.129Z,100297.34
2018-12-31T04:47:32.071Z,100294.05
2018-12-31T04:50:00.870Z,100298.41
2018-12-31T04:52:29.801Z,100290.88
2018-12-31T04:54:58.619Z,100289.00
2018-12-31T04:57:27.651Z,100287.02
2018-12-31T04:59:56.480Z,100284.25
2018-12-31T05:02:25.462Z,100278.91
2018-12-31T05:04:54.261Z,100275.28
2018-12-31T05:07:23.071Z,100282.66
2018-12-31T05:09:51.885Z,100276.87
2018-12-31T05:12:20.707Z,100281.42
2018-12-31T05:14:49.617Z,100283.84
2018-12-31T05:17:18.468Z,100283.84
2018-12-31T05:19:47.287Z,100271.14
2018-12-31T05:22:16.111Z,100283.33
2018-12-31T05:24:44.910Z,100279.98
2018-12-31T05:27:13.711Z,100285.21
2018-12-31T05:29:42.519Z,100290.50
2018-12-31T05:32:11.320Z,100296.26
2018-12-31T05:34:40.161Z,100288.78
2018-12-31T05:37:08.974Z,100292.76
2018-12-31T05:39:37.795Z,100293.14
2018-12-31T05:42:06.678Z,100297.85
2018-12-31T05:44:35.518Z,100291.27
2018-12-31T05:47:04.409Z,100300.88
2018-12-31T05:49:33.238Z,100302.91
2018-12-31T05:52:02.040Z,100308.42
2018-12-31T05:54:30.915Z,100299.09
2018-12-31T05:56:59.713Z,100305.30
2018-12-31T05:59:28.562Z,100305.39
2018-12-31T06:01:57.529Z,100318.57
2018-12-31T06:04:26.424Z,100320.23
2018-12-31T06:06:55.233Z,100316.48
2018-12-31T06:09:24.046Z,100316.77
2018-12-31T06:11:52.979Z,100318.86
2018-12-31T06:14:21.872Z,100317.34
2018-12-31T06:16:50.816Z,100318.67
2018-12-31T06:19:20.264Z,100319.31
2018-12-31T06:21:49.057Z,100317.38
2018-12-31T06:24:18.010Z,100323.58
2018-12-31T06:26:46.900Z,100331.73
2018-12-31T06:29:15.792Z,100326.73
2018-12-31T06:31:44.660Z,100334.51
2018-12-31T06:34:13.561Z,100341.80
2018-12-31T06:36:42.434Z,100336.22
2018-12-31T06:39:11.391Z,100344.98
2018-12-31T06:41:40.269Z,100352.52
2018-12-31T06:44:09.193Z,100355.77
2018-12-31T06:46:37.983Z,100358.92
2018-12-31T06:49:06.865Z,100366.97
2018-12-31T06:51:35.839Z,100365.55
2018-12-31T06:54:04.726Z,100370.16
2018-12-31T06:56:33.618Z,100374.98
2018-12-31T06:59:02.416Z,100375.48
2018-12-31T07:01:31.260Z,100374.39
2018-12-31T07:04:00.145Z,100375.14
2018-12-31T07:06:28.984Z,100375.87
2018-12-31T07:08:57.957Z,100377.59
2018-12-31T07:11:26.772Z,100378.78
2018-12-31T07:13:55.547Z,100380.08
2018-12-31T07:16:24.359Z,100381.74
2018-12-31T07:18:53.166Z,100381.39
2018-12-31T07:21:22.258Z,100389.34
2018-12-31T07:23:51.188Z,100392.75
2018-12-31T07:26:20.003Z,100393.41
2018-12-31T07:28:48.891Z,100396.40
2018-12-31T07:31:17.788Z,100403.16
2018-12-31T07:33:46.625Z,100393.43
2018-12-31T07:36:15.426Z,100400.25
2018-12-31T07:38:44.297Z,100393.94
2018-12-31T07:41:13.113Z,100394.73
2018-12-31T07:43:41.936Z,100396.72
2018-12-31T07:46:10.873Z,100401.68
2018-12-31T07:48:39.677Z,100402.84
2018-12-31T07:51:08.682Z,100403.70
2018-12-31T07:53:37.518Z,100398.48
2018-12-31T07:56:06.420Z,100403.64
2018-12-31T07:58:35.576Z,100396.73
2018-12-31T08:01:04.521Z,100398.36
2018-12-31T08:03:33.400Z,100402.50
2018-12-31T08:06:02.263Z,100405.12
2018-12-31T08:08:31.157Z,100400.75
2018-12-31T08:11:00.031Z,100402.50
2018-12-31T08:13:28.851Z,100395.39
2018-12-31T08:15:57.662Z,100399.60
2018-12-31T08:18:26.605Z,100406.84
2018-12-31T08:20:55.498Z,100410.06
2018-12-31T08:23:24.321Z,100412.00
2018-12-31T08:25:53.221Z,100412.95
2018-12-31T08:28:22.019Z,100420.19
2018-12-31T08:30:50.899Z,100417.22
2018-12-31T08:33:19.707Z,100420.19
2018-12-31T08:35:48.537Z,100425.35
2018-12-31T08:38:17.445Z,100431.76
2018-12-31T08:40:46.264Z,100430.06
2018-12-31T08:43:15.074Z,100430.87
2018-12-31T08:45:43.976Z,100432.55
2018-12-31T08:48:12.788Z,100435.55
2018-12-31T08:50:41.600Z,100435.84
2018-12-31T08:53:10.506Z,100438.79
2018-12-31T08:55:39.409Z,100435.67
2018-12-31T08:58:08.315Z,100439.25
2018-12-31T09:00:37.246Z,100434.03
2018-12-31T09:03:06.129Z,100432.94
2018-12-31T09:05:34.944Z,100435.29
2018-12-31T09:08:03.822Z,100436.35
2018-12-31T09:10:32.696Z,100426.70
2018-12-31T09:13:01.499Z,100431.37
2018-12-31T09:15:30.395Z,100429.43
2018-12-31T09:17:59.219Z,100424.50
2018-12-31T09:20:28.481Z,100424.56
2018-12-31T09:22:57.371Z,100418.80
2018-12-31T09:25:26.646Z,100410.36
2018-12-31T09:27:55.605Z,100412.27
2018-12-31T09:30:24.415Z,100410.52
2018-12-31T09:32:53.388Z,100421.70
2018-12-31T09:35:22.279Z,100426.41
2018-12-31T09:37:51.104Z,100430.27
2018-12-31T09:40:19.902Z,100427.50
2018-12-31T09:42:48.745Z,100440.84
2018-12-31T09:45:17.640Z,100418.58
2018-12-31T09:47:46.491Z,100414.21
2018-12-31T09:50:15.361Z,100425.84
2018-12-31T09:52:44.172Z,100424.03
2018-12-31T09:55:13.254Z,100424.25
2018-12-31T09:57:42.141Z,100420.47
2018-12-31T10:00:11.107Z,100415.62
2018-12-31T10:02:39.991Z,100423.97
2018-12-31T10:05:08.956Z,100420.97
2018-12-31T10:07:37.843Z,100419.89
2018-12-31T10:10:06.717Z,100420.33
2018-12-31T10:12:35.627Z,100425.42
2018-12-31T10:15:05.429Z,100420.20
2018-12-31T10:17:34.345Z,100420.33
2018-12-31T10:20:03.235Z,100411.70
2018-12-31T10:22:32.071Z,100413.09
2018-12-31T10:25:00.868Z,100408.09
2018-12-31T10:27:29.778Z,100411.91
2018-12-31T10:29:59.194Z,100406.97
2018-12-31T10:32:28.046Z,100406.97
2018-12-31T10:34:56.861Z,100401.11
2018-12-31T10:37:25.750Z,100396.52
2018-12-31T10:39:54.555Z,100401.62
2018-12-31T10:42:23.411Z,100407.06
2018-12-31T10:44:52.212Z,100414.46
2018-12-31T10:47:21.108Z,100414.46
2018-12-31T10:49:50.056Z,100403.27
2018-12-31T10:52:18.943Z,100401.45
2018-12-31T10:54:47.741Z,100396.83
2018-12-31T10:57:17.873Z,100399.85
2018-12-31T10:59:46.846Z,100394.91
2018-12-31T11:02:15.665Z,100396.42
2018-12-31T11:04:44.480Z,100389.34
2018-12-31T11:07:13.371Z,100377.75
2018-12-31T11:09:42.203Z,100386.91
2018-12-31T11:12:11.075Z,100382.05
2018-12-31T11:14:40.044Z,100376.80
2018-12-31T11:17:08.852Z,100378.95
2018-12-31T11:19:37.662Z,100372.01
2018-12-31T11:22:06.478Z,100373.39
2018-12-31T11:24:35.302Z,100372.94
2018-12-31T11:27:04.263Z,100375.14
2018-12-31T11:29:33.087Z,100362.95
2018-12-31T11:32:01.894Z,100358.83
2018-12-31T11:34:30.721Z,100353.66
2018-12-31T11:36:59.688Z,100344.77
2018-12-31T11:39:28.505Z,100351.00
2018-12-31T11:41:58.131Z,100339.59
2018-12-31T11:44:27.181Z,100329.20
2018-12-31T11:46:56.086Z,100323.98
2018-12-31T11:49:24.970Z,100314.34
2018-12-31T11:51:53.781Z,100319.65
2018-12-31T11:54:22.719Z,100320.05
2018-12-31T11:56:51.624Z,100324.54
2018-12-31T11:59:20.618Z,100324.09
2018-12-31T12:01:49.642Z,100323.50
2018-12-31T12:04:18.435Z,100326.53
2018-12-31T12:06:47.310Z,100329.72
2018-12-31T12:09:16.141Z,100324.41
2018-12-31T12:11:44.950Z,100322.17
2018-12-31T12:14:13.761Z,100316.94
2018-12-31T12:16:42.586Z,100319.55
2018-12-31T12:19:11.460Z,100316.30
2018-12-31T12:21:40.261Z,100318.66
2018-12-31T12:24:09.081Z,100313.53
2018-12-31T12:26:37.874Z,100319.63
2018-12-31T12:29:06.684Z,100318.32
2018-12-31T12:31:35.721Z,100321.01
2018-12-31T12:34:04.650Z,100321.34
2018-12-31T12:36:33.480Z,100309.49
2018-12-31T12:39:02.373Z,100304.97
2018-12-31T12:41:31.246Z,100293.19
2018-12-31T12:44:00.256Z,100297.45
2018-12-31T12:46:29.216Z,100288.81
2018-12-31T12:48:58.046Z,100294.16
2018-12-31T12:51:26.921Z,100295.92
2018-12-31T12:53:55.715Z,100293.23
2018-12-31T12:56:24.835Z,100292.92
2018-12-31T12:58:53.836Z,100300.81
2018-12-31T13:01:22.722Z,100294.53
2018-12-31T13:03:51.528Z,100303.92
2018-12-31T13:06:20.342Z,100300.11
2018-12-31T13:08:49.230Z,100300.30
2018-12-31T13:11:18.192Z,100294.53
2018-12-31T13:13:47.012Z,100301.37
2018-12-31T13:16:15.902Z,100298.23
2018-12-31T13:18:44.704Z,100301.94
2018-12-31T13:21:13.608Z,100301.48
2018-12-31T13:23:42.502Z,100300.18
2018-12-31T13:26:11.415Z,100306.66
2018-12-31T13:28:40.199Z,100300.25
2018-12-31T13:31:09.017Z,100303.51
2018-12-31T13:33:37.924Z,100304.03
2018-12-31T13:36:07.393Z,100307.25
2018-12-31T13:38:36.455Z,100301.90
2018-12-31T13:41:05.516Z,100306.35
2018-12-31T13:43:34.358Z,100302.58
2018-12-31T13:46:03.523Z,100298.37
2018-12-31T13:48:32.355Z,100307.30
2018-12-31T13:51:01.163Z,100301.27
2018-12-31T13:53:31.485Z,100304.92
2018-12-31T13:56:00.459Z,100297.97
2018-12-31T13:58:29.280Z,100298.98
2018-12-31T14:00:58.099Z,100302.93
2018-12-31T14:03:27.067Z,100301.99
2018-12-31T14:05:56.042Z,100310.18
2018-12-31T14:08:24.866Z,100305.88
2018-12-31T14:10:53.681Z,100306.22
2018-12-31T14:13:22.566Z,100304.04
2018-12-31T14:15:51.390Z,100309.30
2018-12-31T14:18:20.213Z,100311.34
2018-12-31T14:20:49.094Z,100310.86
2018-12-31T14:23:17.941Z,100310.08
2018-12-31T14:25:46.911Z,100309.44
2018-12-31T14:28:15.741Z,100312.59
2018-12-31T14:30:44.720Z,100326.36
2018-12-31T14:33:13.548Z,100328.72
2018-12-31T14:35:45.960Z,100330.44
2018-12-31T14:38:12.985Z,100327.03
2018-12-31T14:40:41.836Z,100335.81
2018-12-31T14:43:10.660Z,100333.27
2018-12-31T14:45:39.619Z,100339.13
2018-12-31T14:48:08.428Z,100341.03
2018-12-31T14:50:37.304Z,100349.81
2018-12-31T14:53:06.196Z,100348.58
2018-12-31T14:55:35.080Z,100348.77
2018-12-31T14:58:03.903Z,100351.05
2018-12-31T15:00:32.783Z,100357.22
2018-12-31T15:03:01.622Z,100353.40
2018-12-31T15:05:30.575Z,100357.25
2018-12-31T15:07:59.475Z,100360.94
2018-12-31T15:10:28.355Z,100362.87
2018-12-31T15:12:57.184Z,100366.02
2018-12-31T15:15:26.023Z,100366.28
2018-12-31T15:17:54.873Z,100366.73
2018-12-31T15:20:23.867Z,100366.15
2018-12-31T15:22:52.746Z,100360.47
2018-12-31T15:25:21.944Z,100362.88
2018-12-31T15:27:51.173Z,100368.31
2018-12-31T15:30:20.343Z,100366.35
2018-12-31T15:32:49.443Z,100367.12
2018-12-31T15:35:18.356Z,100363.36
2018-12-31T15:37:47.166Z,100362.87
2018-12-31T15:40:16.118Z,100365.36
2018-12-31T15:42:45.068Z,100363.84
2018-12-31T15:45:13.880Z,100369.22
2018-12-31T15:47:43.957Z,100377.96
2018-12-31T15:50:13.039Z,100382.26
2018-12-31T15:52:42.047Z,100382.84
2018-12-31T15:55:11.389Z,100373.83
2018-12-31T15:57:40.208Z,100384.46
2018-12-31T16:00:10.445Z,100393.03
2018-12-31T16:02:39.266Z,100399.36
2018-12-31T16:05:08.981Z,100396.30
2018-12-31T16:07:45.390Z,100387.56
2018-12-31T16:10:08.706Z,100394.03
2018-12-31T16:12:37.726Z,100389.25
2018-12-31T16:15:08.735Z,100392.86
2018-12-31T16:17:37.625Z,100384.09
2018-12-31T16:20:06.922Z,100382.47
2018-12-31T16:22:35.726Z,100386.49
2018-12-31T16:25:04.802Z,100395.85
2018-12-31T16:27:33.605Z,100398.39
2018-12-31T16:30:02.495Z,100404.78
2018-12-31T16:32:31.291Z,100403.58
2018-12-31T16:35:00.213Z,100396.73
2018-12-31T16:37:29.053Z,100404.57
2018-12-31T16:39:57.942Z,100405.08
2018-12-31T16:42:26.744Z,100405.67
2018-12-31T16:44:55.685Z,100403.18
2018-12-31T16:47:24.519Z,100401.17
2018-12-31T16:49:53.374Z,100401.01
2018-12-31T16:52:23.336Z,100394.70
2018-12-31T16:54:52.082Z,100379.81
2018-12-31T16:57:20.890Z,100381.91
2018-12-31T16:59:49.751Z,100381.77
2018-12-31T17:02:18.580Z,100391.20
2018-12-31T17:04:47.408Z,100390.77
2018-12-31T17:07:16.226Z,100395.63
2018-12-31T17:09:45.041Z,100390.83
2018-12-31T17:12:13.940Z,100395.44
2018-12-31T17:14:43.740Z,100392.38
2018-12-31T17:17:13.842Z,100384.83
2018-12-31T17:19:42.650Z,100389.63
2018-12-31T17:22:11.454Z,100403.86
2018-12-31T17:24:40.266Z,100404.27
2018-12-31T17:27:09.138Z,100406.26
2018-12-31T17:29:38.253Z,100399.05
2018-12-31T17:32:07.069Z,100403.69
2018-12-31T17:34:35.942Z,100407.99
2018-12-31T17:37:04.818Z,100412.66
2018-12-31T17:39:33.657Z,100409.92
2018-12-31T17:42:09.484Z,100401.52
2018-12-31T17:44:33.547Z,100404.67
2018-12-31T17:47:02.481Z,100404.95
2018-12-31T17:49:31.497Z,100407.92
2018-12-31T17:52:00.408Z,100407.69
2018-12-31T17:54:29.665Z,100407.31
2018-12-31T17:56:58.559Z,100409.30
2018-12-31T17:59:27.376Z,100410.74
2018-12-31T18:01:56.365Z,100409.60
2018-12-31T18:04:25.184Z,100407.83
2018-12-31T18:06:54.019Z,100407.12
2018-12-31T18:09:22.857Z,100408.95
2018-12-31T18:11:51.757Z,100407.83
2018-12-31T18:14:20.593Z,100413.58
2018-12-31T18:16:49.480Z,100404.84
2018-12-31T18:19:18.536Z,100405.48
2018-12-31T18:21:47.702Z,100397.19
2018-12-31T18:24:16.859Z,100405.19
2018-12-31T18:26:45.730Z,100402.63
2018-12-31T18:29:14.634Z,100407.13
2018-12-31T18:31:43.526Z,100410.61
2018-12-31T18:34:12.411Z,100406.19
2018-12-31T18:36:41.239Z,100410.80
2018-12-31T18:39:10.127Z,100412.06
2018-12-31T18:41:39.038Z,100410.53
2018-12-31T18:44:08.077Z,100414.23
2018-12-31T18:46:37.337Z,100415.70
2018-12-31T18:49:06.296Z,100416.86
2018-12-31T18:51:35.231Z,100416.78
2018-12-31T18:54:04.123Z,100416.28
2018-12-31T18:56:32.951Z,100420.90
2018-12-31T18:59:01.789Z,100423.40
2018-12-31T19:01:30.693Z,100418.81
2018-12-31T19:03:59.584Z,100418.81
2018-12-31T19:06:28.407Z,100422.16
2018-12-31T19:08:57.226Z,100420.70
2018-12-31T19:11:26.337Z,100421.34
2018-12-31T19:13:55.175Z,100426.16
2018-12-31T19:16:24.014Z,100424.61
2018-12-31T19:18:53.245Z,100426.50
2018-12-31T19:21:22.162Z,100419.74
2018-12-31T19:23:51.261Z,100421.64
2018-12-31T19:26:20.206Z,100425.34
2018-12-31T19:28:49.097Z,100434.85
2018-12-31T19:31:17.924Z,100426.67
2018-12-31T19:33:46.754Z,100440.73
2018-12-31T19:36:15.569Z,100435.65
2018-12-31T19:38:44.396Z,100446.72
2018-12-31T19:41:13.231Z,100450.77
2018-12-31T19:43:42.053Z,100453.73
2018-12-31T19:46:10.878Z,100446.91
2018-12-31T19:48:39.794Z,100446.76
2018-12-31T19:51:08.637Z,100450.83
2018-12-31T19:53:37.786Z,100442.39
2018-12-31T19:56:06.941Z,100436.17
2018-12-31T19:58:36.018Z,100430.09
2018-12-31T20:01:06.343Z,100428.11
2018-12-31T20:03:35.238Z,100427.89
2018-12-31T20:06:04.131Z,100414.89
2018-12-31T20:08:33.088Z,100402.39
2018-12-31T20:11:01.997Z,100403.41
2018-12-31T20:13:30.890Z,100399.43
2018-12-31T20:15:59.757Z,100399.13
2018-12-31T20:18:28.644Z,100394.69
2018-12-31T20:20:57.480Z,100394.51
2018-12-31T20:23:26.288Z,100397.92
2018-12-31T20:25:55.176Z,100402.71
2018-12-31T20:28:24.277Z,100396.67
2018-12-31T20:30:53.085Z,100393.33
2018-12-31T20:33:21.989Z,100394.19
2018-12-31T20:35:50.806Z,100392.31
2018-12-31T20:38:19.939Z,100392.31
2018-12-31T20:40:48.837Z,100392.31
2018-12-31T20:43:17.745Z,100385.05
2018-12-31T20:45:46.637Z,100390.01
2018-12-31T20:48:15.623Z,100383.37
2018-12-31T20:50:44.452Z,100388.25
2018-12-31T20:53:13.271Z,100382.52
2018-12-31T20:55:42.076Z,100385.13
2018-12-31T20:58:10.980Z,100379.34
2018-12-31T21:00:39.783Z,100375.77
2018-12-31T21:03:08.688Z,100375.27
2018-12-31T21:05:37.636Z,100383.17
2018-12-31T21:08:06.644Z,100374.75
2018-12-31T21:10:35.567Z,100380.63
2018-12-31T21:13:04.559Z,100378.59
2018-12-31T21:15:33.359Z,100378.38
2018-12-31T21:18:02.213Z,100381.48
2018-12-31T21:20:31.124Z,100376.84
2018-12-31T21:23:00.241Z,100360.83
2018-12-31T21:25:29.124Z,100367.11
2018-12-31T21:27:58.011Z,100372.66
2018-12-31T21:30:26.931Z,100365.04
2018-12-31T21:32:55.760Z,100359.09
2018-12-31T21:35:25.042Z,100360.88
2018-12-31T21:37:53.864Z,100365.30
2018-12-31T21:40:22.837Z,100370.02
2018-12-31T21:42:52.204Z,100364.72
2018-12-31T21:45:22.208Z,100370.19
2018-12-31T21:47:51.137Z,100364.64
2018-12-31T21:50:19.942Z,100369.66
2018-12-31T21:52:48.870Z,100369.66
2018-12-31T21:55:17.825Z,100364.53
2018-12-31T21:57:46.664Z,100367.24
2018-12-31T22:02:40.041Z,100354.77
2018-12-31T22:05:08.922Z,100354.49
2018-12-31T22:07:37.878Z,100356.69
2018-12-31T22:10:07.351Z,100351.64
2018-12-31T22:12:36.287Z,100358.61
2018-12-31T22:15:08.022Z,100358.39
2018-12-31T22:17:37.045Z,100357.30
2018-12-31T22:20:07.631Z,100358.27
2018-12-31T22:22:36.459Z,100348.45
2018-12-31T22:25:05.724Z,100354.17
2018-12-31T22:27:34.969Z,100350.56
2018-12-31T22:30:04.012Z,100358.41
2018-12-31T22:32:32.820Z,100351.28
2018-12-31T22:35:01.741Z,100350.28
2018-12-31T22:37:30.797Z,100350.92
2018-12-31T22:40:00.096Z,100353.53
2018-12-31T22:42:29.048Z,100351.80
2018-12-31T22:44:57.927Z,100349.98
2018-12-31T22:47:26.759Z,100350.05
2018-12-31T22:49:55.997Z,100356.63
2018-12-31T22:52:24.809Z,100357.89
2018-12-31T22:54:54.593Z,100360.13
2018-12-31T22:57:23.414Z,100358.39
2018-12-31T22:59:52.315Z,100357.30
2018-12-31T23:02:21.143Z,100362.53
2018-12-31T23:04:50.406Z,100354.10
2018-12-31T23:07:19.306Z,100355.55
2018-12-31T23:09:48.137Z,100352.29
2018-12-31T23:12:16.955Z,100353.11
2018-12-31T23:14:45.811Z,100356.95
2018-12-31T23:17:16.805Z,100359.82
2018-12-31T23:19:45.647Z,100353.53
2018-12-31T23:22:14.516Z,100351.42
2018-12-31T23:24:43.324Z,100349.74
2018-12-31T23:27:12.596Z,100343.72
2018-12-31T23:29:41.501Z,100339.19
2018-12-31T23:32:10.341Z,100348.25
2018-12-31T23:34:39.244Z,100344.12
2018-12-31T23:37:08.136Z,100350.85
2018-12-31T23:39:37.084Z,100349.70
2018-12-31T23:42:05.987Z,100339.45
2018-12-31T23:44:36.136Z,100341.19
2018-12-31T23:47:04.998Z,100343.53
2018-12-31T23:49:33.905Z,100349.41
2018-12-31T23:52:02.736Z,100348.66
2018-12-31T23:54:31.567Z,100343.62
2018-12-31T23:57:00.767Z,100342.30
2018-12-31T23:59:29.622Z,100333.95
